Time;durP1;ratioP1;P1;durP2;ratioP2;P2;SDS_P1;SDS_P2;PMS_P1;PMS_P2;Temp;Humidity;BMP_temperature;BMP_pressure;BME280_temperature;BME280_humidity;BME280_pressure;Samples;Min_cycle;Max_cycle;Signal;HPM_P1;HPM_P2
2023/10/14 00:02:01;;;;;;;24.23;14.03;;;;;;;19.48;100.00;100853.59;5048723;28;20132;-64
2023/10/14 00:04:27;;;;;;;24.77;12.98;;;;;;;19.47;100.00;100858.06;5042599;28;20041;-64
2023/10/14 00:06:54;;;;;;;27.23;13.73;;;;;;;19.46;100.00;100860.91;5046355;28;20091;-64
2023/10/14 00:09:21;;;;;;;23.95;13.98;;;;;;;19.47;100.00;100857.25;5050177;28;20049;-64
2023/10/14 00:11:53;;;;;;;24.02;13.15;;;;;;;19.45;100.00;100862.72;5044452;28;20033;-64
2023/10/14 00:14:19;;;;;;;26.40;13.50;;;;;;;19.44;100.00;100855.81;5048339;28;20099;-64
2023/10/14 00:16:51;;;;;;;27.38;14.27;;;;;;;19.43;100.00;100851.53;5040238;28;20451;-64
2023/10/14 00:19:18;;;;;;;25.92;13.45;;;;;;;19.41;100.00;100844.81;5045143;28;20837;-64
2023/10/14 00:21:45;;;;;;;25.42;14.27;;;;;;;19.40;100.00;100840.53;5038684;28;20530;-64
2023/10/14 00:24:16;;;;;;;31.23;13.77;;;;;;;19.39;100.00;100830.97;5044891;28;20041;-64
2023/10/14 00:26:47;;;;;;;30.38;14.52;;;;;;;19.39;100.00;100836.25;5046176;28;20057;-64
2023/10/14 00:31:42;;;;;;;29.98;14.85;;;;;;;19.34;100.00;100839.50;5049921;28;20047;-64
2023/10/14 00:34:07;;;;;;;24.55;13.75;;;;;;;19.33;100.00;100832.59;5045635;28;20405;-64
2023/10/14 00:36:34;;;;;;;30.58;13.82;;;;;;;19.33;100.00;100834.41;5047100;28;20033;-64
2023/10/14 00:39:01;;;;;;;28.15;14.07;;;;;;;19.31;100.00;100826.66;5046336;28;20400;-64
2023/10/14 00:41:27;;;;;;;22.38;13.00;;;;;;;19.29;100.00;100818.13;5049685;28;20476;-65
2023/10/14 00:43:56;;;;;;;27.20;13.90;;;;;;;19.27;100.00;100811.41;5050483;28;20043;-64
2023/10/14 00:46:23;;;;;;;29.02;13.98;;;;;;;19.24;100.00;100807.31;5036830;28;20046;-64
2023/10/14 00:48:59;;;;;;;22.27;12.25;;;;;;;19.24;100.00;100807.31;5041648;28;20467;-65
2023/10/14 00:51:26;;;;;;;29.40;14.07;;;;;;;19.25;100.00;100805.50;5045623;28;20133;-64
2023/10/14 00:53:52;;;;;;;23.67;13.25;;;;;;;19.25;100.00;100802.84;5048148;28;20116;-64
2023/10/14 00:56:27;;;;;;;26.00;13.63;;;;;;;19.23;100.00;100801.22;5048547;28;20064;-64
2023/10/14 00:59:02;;;;;;;26.85;12.77;;;;;;;19.22;100.00;100789.00;5042756;28;20041;-64
2023/10/14 01:01:32;;;;;;;24.67;13.02;;;;;;;19.21;100.00;100781.28;5044535;28;20040;-64
2023/10/14 01:10:14;;;;;;;28.92;12.82;;;;;;;19.14;100.00;100769.84;5045559;28;20051;-64
2023/10/14 01:12:39;;;;;;;24.98;12.60;;;;;;;19.15;100.00;100766.22;5042473;28;20147;-64
2023/10/14 01:15:13;;;;;;;24.17;12.30;;;;;;;19.16;100.00;100759.91;5046406;28;20056;-64
2023/10/14 01:17:41;;;;;;;19.83;10.32;;;;;;;19.15;100.00;100750.34;5041768;28;20033;-64
2023/10/14 01:22:39;;;;;;;30.10;13.55;;;;;;;19.17;100.00;100761.56;5043854;28;20066;-65
2023/10/14 01:25:12;;;;;;;25.48;13.45;;;;;;;19.16;100.00;100758.09;5047851;28;20369;-64
2023/10/14 01:27:38;;;;;;;24.33;13.45;;;;;;;19.16;100.00;100757.28;5043529;28;20036;-64
2023/10/14 01:30:10;;;;;;;24.92;13.65;;;;;;;19.15;100.00;100760.94;5045804;28;20119;-64
2023/10/14 01:35:12;;;;;;;30.10;15.35;;;;;;;19.11;100.00;100749.13;5046518;28;20412;-64
2023/10/14 01:37:38;;;;;;;24.77;13.02;;;;;;;19.09;100.00;100744.03;5046095;28;20506;-64
2023/10/14 01:40:24;;;;;;;27.63;14.57;;;;;;;19.07;100.00;100748.69;5042598;28;20041;-64
2023/10/14 01:43:05;;;;;;;27.40;14.25;;;;;;;19.06;100.00;100740.94;5048049;28;20033;-64
2023/10/14 01:45:31;;;;;;;28.77;13.98;;;;;;;19.07;100.00;100742.59;5044013;28;20044;-64
2023/10/14 01:48:11;;;;;;;26.13;13.73;;;;;;;19.08;100.00;100744.22;5042457;28;20977;-64
2023/10/14 01:50:44;;;;;;;28.42;13.82;;;;;;;19.07;100.00;100737.31;5047429;28;20045;-64
2023/10/14 01:53:11;;;;;;;34.42;16.55;;;;;;;19.08;100.00;100733.66;5052498;28;20134;-64
2023/10/14 01:55:42;;;;;;;34.83;15.45;;;;;;;19.06;100.00;100730.38;5045849;28;20162;-64
2023/10/14 01:58:12;;;;;;;30.23;15.65;;;;;;;19.07;100.00;100732.03;5042188;28;20162;-64
2023/10/14 02:00:39;;;;;;;27.42;13.13;;;;;;;19.08;100.00;100723.91;5047750;28;20389;-64
2023/10/14 02:03:06;;;;;;;30.50;14.93;;;;;;;19.09;100.00;100716.81;5042792;28;20043;-64
2023/10/14 02:05:44;;;;;;;27.27;14.25;;;;;;;19.08;100.00;100723.09;5043443;28;20190;-64
2023/10/14 02:08:16;;;;;;;29.85;14.63;;;;;;;19.08;100.00;100715.16;5044282;28;20048;-64
2023/10/14 02:10:54;;;;;;;24.95;14.68;;;;;;;19.06;100.00;100714.53;5043157;28;20029;-64
2023/10/14 02:13:22;;;;;;;34.20;14.57;;;;;;;19.04;100.00;100711.28;5038636;28;20119;-64
2023/10/14 02:15:50;;;;;;;31.52;15.68;;;;;;;19.02;100.00;100713.28;5046318;28;20025;-64
2023/10/14 02:18:20;;;;;;;21.25;10.20;;;;;;;19.01;100.00;100706.38;5043054;28;20482;-64
2023/10/14 02:21:04;;;;;;;23.13;13.48;;;;;;;19.02;100.00;100708.00;5046065;28;20029;-64
2023/10/14 02:23:44;;;;;;;25.80;14.00;;;;;;;19.02;100.00;100703.56;5042734;28;20323;-64
2023/10/14 02:26:24;;;;;;;31.33;15.73;;;;;;;19.01;100.00;100701.09;5042294;28;20037;-64
2023/10/14 02:28:54;;;;;;;27.10;14.30;;;;;;;19.00;100.00;100704.75;5041731;28;20370;-64
2023/10/14 02:33:59;;;;;;;19.55;8.98;;;;;;;19.01;100.00;100714.31;5049805;28;20115;-64
2023/10/14 02:36:35;;;;;;;35.47;15.25;;;;;;;19.03;100.00;100717.56;5051461;28;20025;-64
2023/10/14 02:39:00;;;;;;;;;;;;;;;19.03;100.00;100714.94;5047668;28;20032;-64
2023/10/14 02:41:32;;;;;;;;;;;;;;;19.01;100.00;100711.66;5049836;28;19923;-64
2023/10/14 02:44:28;;;;;;;35.60;15.95;;;;;;;18.98;100.00;100701.50;5047114;28;19943;-64
2023/10/14 02:46:46;;;;;;;31.60;15.57;;;;;;;18.95;100.00;100707.16;5052193;28;20056;-64
2023/10/14 02:49:15;;;;;;;27.63;12.57;;;;;;;18.92;100.00;100702.25;5049938;28;20022;-64
2023/10/14 02:51:44;;;;;;;22.38;11.30;;;;;;;18.90;100.00;100707.75;5048472;28;20040;-64
2023/10/14 02:54:33;;;;;;;27.48;14.48;;;;;;;18.89;100.00;100709.59;5051338;28;20029;-64
2023/10/14 02:57:00;;;;;;;28.65;13.02;;;;;;;18.90;100.00;100703.25;5043009;28;20051;-64
2023/10/14 03:02:24;;;;;;;29.80;15.52;;;;;;;18.90;100.00;100703.25;5045413;28;20041;-64
2023/10/14 03:09:51;;;;;;;28.23;13.88;;;;;;;18.84;100.00;100696.16;5046826;28;20041;-64
2023/10/14 03:12:21;;;;;;;27.10;15.30;;;;;;;18.81;100.00;100695.72;5049402;28;20025;-64
2023/10/14 03:14:52;;;;;;;27.95;13.32;;;;;;;18.78;100.00;100691.63;5046603;28;20031;-64
2023/10/14 03:17:38;;;;;;;30.48;14.57;;;;;;;18.76;100.00;100693.66;5043048;28;20028;-64
2023/10/14 03:20:34;;;;;;;34.78;16.27;;;;;;;18.73;100.00;100693.22;5048115;28;20029;-64
2023/10/14 03:22:59;;;;;;;31.20;14.95;;;;;;;18.71;100.00;100692.59;5046769;28;20106;-64
2023/10/14 03:25:27;;;;;;;32.03;14.68;;;;;;;18.68;100.00;100688.50;5050102;28;20045;-64
2023/10/14 03:28:06;;;;;;;28.65;14.25;;;;;;;18.67;100.00;100694.78;5044413;28;20029;-64
2023/10/14 03:30:32;;;;;;;32.33;15.23;;;;;;;18.65;100.00;100683.63;5044434;28;20076;-64
2023/10/14 03:32:57;;;;;;;29.92;14.52;;;;;;;18.64;100.00;100686.44;5048386;28;20461;-64
2023/10/14 03:35:27;;;;;;;30.30;14.35;;;;;;;18.64;100.00;100684.63;5046318;28;20028;-64
2023/10/14 03:37:54;;;;;;;28.77;15.43;;;;;;;18.61;100.00;100677.09;5050879;28;20025;-64
2023/10/14 03:43:07;;;;;;;29.60;14.38;;;;;;;18.53;100.00;100672.72;5038003;28;20052;-64
2023/10/14 03:45:33;;;;;;;27.20;14.43;;;;;;;18.52;100.00;100675.56;5049234;28;20076;-64
2023/10/14 03:48:00;;;;;;;33.42;14.98;;;;;;;18.50;100.00;100677.56;5039682;28;20053;-64
2023/10/14 03:50:26;;;;;;;26.45;15.30;;;;;;;18.46;100.00;100676.31;5051788;28;20036;-64
2023/10/14 03:52:53;;;;;;;29.00;14.35;;;;;;;18.41;100.00;100674.28;5040744;28;20038;-64
2023/10/14 03:55:26;;;;;;;24.70;13.40;;;;;;;18.34;100.00;100667.31;5040346;28;20050;-64
2023/10/14 03:58:04;;;;;;;23.80;13.23;;;;;;;18.29;100.00;100661.78;5045323;28;20128;-64
2023/10/14 04:00:38;;;;;;;23.17;12.70;;;;;;;18.23;100.00;100666.81;5037468;28;20081;-64
2023/10/14 04:03:11;;;;;;;26.17;12.50;;;;;;;18.21;100.00;100663.53;5041580;28;20060;-64
2023/10/14 04:06:00;;;;;;;30.95;14.93;;;;;;;18.23;100.00;100656.25;5042253;28;20033;-64
2023/10/14 04:08:39;;;;;;;29.45;13.45;;;;;;;18.24;100.00;100651.81;5041416;28;20080;-64
2023/10/14 04:11:13;;;;;;;28.85;13.73;;;;;;;18.24;100.00;100651.81;5046559;28;20108;-64
2023/10/14 04:13:51;;;;;;;29.17;14.35;;;;;;;18.23;100.00;100648.34;5042629;28;20045;-64
2023/10/14 04:16:27;;;;;;;28.08;15.07;;;;;;;18.23;100.00;100645.72;5037040;28;20029;-64
2023/10/14 04:18:59;;;;;;;24.20;13.05;;;;;;;18.23;100.00;100643.06;5046053;28;20443;-64
2023/10/14 04:21:35;;;;;;;26.40;15.32;;;;;;;18.23;100.00;100644.91;5048713;28;20025;-64
2023/10/14 04:24:20;;;;;;;26.35;13.35;;;;;;;18.22;100.00;100649.34;5039217;28;20025;-64
2023/10/14 04:26:48;;;;;;;23.45;12.88;;;;;;;18.25;100.00;100650.78;5044346;28;20033;-64
2023/10/14 04:29:34;;;;;;;26.00;13.63;;;;;;;18.25;100.00;100648.16;5042500;28;20112;-64
2023/10/14 04:32:13;;;;;;;22.92;11.98;;;;;;;18.26;100.00;100652.44;5038483;28;20035;-64
2023/10/14 04:34:40;;;;;;;27.02;13.93;;;;;;;18.28;100.00;100652.25;5045670;28;20056;-64
2023/10/14 04:37:08;;;;;;;26.50;12.82;;;;;;;18.27;100.00;100645.34;5051702;28;20056;-64
2023/10/14 04:39:42;;;;;;;33.40;14.13;;;;;;;18.24;100.00;100638.63;5047177;28;20037;-64
2023/10/14 04:44:58;;;;;;;26.80;13.32;;;;;;;18.20;100.00;100626.81;5047415;28;20123;-64
2023/10/14 04:47:36;;;;;;;27.45;13.55;;;;;;;18.17;100.00;100635.91;5046090;28;20094;-64
2023/10/14 04:50:14;;;;;;;33.60;12.68;;;;;;;18.17;100.00;100630.66;5049980;28;20021;-64
2023/10/14 04:52:48;;;;;;;28.13;13.35;;;;;;;18.15;100.00;100622.09;5039286;28;20040;-64
2023/10/14 04:57:56;;;;;;;24.17;13.13;;;;;;;18.11;100.00;100623.50;5045335;28;20037;-64
2023/10/14 05:00:31;;;;;;;;;;;;;;;18.11;100.00;100610.31;5044864;28;20045;-64
2023/10/14 05:02:59;;;;;;;24.08;12.98;;;;;;;18.13;100.00;100612.75;5044560;28;20012;-64
2023/10/14 05:05:30;;;;;;;28.20;13.63;;;;;;;18.14;100.00;100615.19;5043153;28;20041;-64
2023/10/14 05:07:58;;;;;;;29.90;14.90;;;;;;;18.17;100.00;100614.81;5042885;28;20037;-64
2023/10/14 05:10:28;;;;;;;23.80;12.93;;;;;;;18.19;100.00;100618.09;5041344;28;20413;-64
2023/10/14 05:12:54;;;;;;;33.38;13.07;;;;;;;18.20;100.00;100617.09;5045338;28;20551;-64
2023/10/14 05:15:20;;;;;;;27.88;13.48;;;;;;;18.21;100.00;100617.91;5045810;28;20116;-64
2023/10/14 05:17:49;;;;;;;27.50;13.30;;;;;;;18.22;100.00;100620.34;5045098;28;20036;-64
2023/10/14 05:20:28;;;;;;;29.02;13.43;;;;;;;18.21;100.00;100626.63;5046079;28;20083;-64
2023/10/14 05:22:56;;;;;;;24.52;12.73;;;;;;;18.15;100.00;100621.28;5037258;28;20037;-64
2023/10/14 05:25:27;;;;;;;27.15;13.13;;;;;;;18.12;100.00;100611.94;5042991;28;20029;-64
2023/10/14 05:27:58;;;;;;;26.02;13.50;;;;;;;18.15;100.00;100616.84;5043294;28;20144;-64
2023/10/14 05:30:32;;;;;;;22.08;12.07;;;;;;;18.13;100.00;100612.75;5038906;28;20040;-64
2023/10/14 05:33:06;;;;;;;23.13;12.18;;;;;;;18.13;100.00;100613.56;5039566;28;20029;-64
2023/10/14 05:35:38;;;;;;;22.38;11.32;;;;;;;18.17;100.00;100619.28;5044919;28;20111;-64
2023/10/14 05:38:09;;;;;;;26.20;12.02;;;;;;;18.19;100.00;100622.53;5045668;28;20039;-64
2023/10/14 05:40:37;;;;;;;23.85;11.60;;;;;;;18.20;100.00;100624.19;5047161;28;20041;-64
2023/10/14 05:43:03;;;;;;;26.65;12.40;;;;;;;18.19;100.00;100625.19;5048477;28;20036;-64
2023/10/14 05:45:34;;;;;;;22.45;10.82;;;;;;;18.18;100.00;100616.44;5043223;28;20091;-64
2023/10/14 05:47:59;;;;;;;21.77;12.25;;;;;;;18.19;100.00;100615.44;5042506;28;20642;-65
2023/10/14 05:50:25;;;;;;;25.75;12.05;;;;;;;18.16;100.00;100615.81;5042904;28;20041;-64
2023/10/14 05:52:50;;;;;;;20.60;10.63;;;;;;;18.17;100.00;100619.28;5047770;28;20476;-64
2023/10/14 05:55:22;;;;;;;18.98;10.70;;;;;;;18.18;100.00;100616.44;5041087;28;20384;-64
2023/10/14 05:57:48;;;;;;;21.55;10.77;;;;;;;18.20;100.00;100616.25;5039959;28;20427;-64
2023/10/14 06:00:25;;;;;;;23.15;11.35;;;;;;;18.22;100.00;100617.72;5046403;28;20481;-64
2023/10/14 06:02:52;;;;;;;21.02;10.60;;;;;;;18.22;100.00;100622.97;5047932;28;20029;-64
2023/10/14 06:05:39;;;;;;;23.20;12.10;;;;;;;18.17;100.00;100620.09;5046791;28;20032;-64
2023/10/14 06:08:16;;;;;;;19.27;10.93;;;;;;;18.17;100.00;100620.09;5045466;28;20040;-64
2023/10/14 06:10:42;;;;;;;19.42;9.90;;;;;;;18.24;100.00;100626.25;5047744;28;20055;-64
2023/10/14 06:13:13;;;;;;;20.63;11.02;;;;;;;18.31;100.00;100630.75;5050123;28;20438;-64
2023/10/14 06:15:40;;;;;;;21.52;11.32;;;;;;;18.36;100.00;100633.66;5047073;28;20029;-64
2023/10/14 06:18:08;;;;;;;22.70;10.85;;;;;;;18.42;100.00;100632.88;5049422;28;20078;-64
2023/10/14 06:20:34;;;;;;;24.15;10.80;;;;;;;18.46;100.00;100628.81;5044913;28;20099;-64
2023/10/14 06:23:00;;;;;;;18.85;10.73;;;;;;;18.52;100.00;100641.25;5043304;28;20119;-64
2023/10/14 06:25:29;;;;;;;21.77;10.90;;;;;;;18.57;100.00;100636.22;5048064;28;20060;-64
2023/10/14 06:27:55;;;;;;;21.75;11.02;;;;;;;18.62;100.00;100646.22;5052004;28;20118;-64
2023/10/14 06:30:21;;;;;;;21.95;11.00;;;;;;;18.64;100.00;100636.31;5047829;28;20048;-64
2023/10/14 06:32:49;;;;;;;19.95;11.68;;;;;;;18.66;100.00;100639.56;5057254;28;20056;-64
2023/10/14 06:35:17;;;;;;;20.90;11.52;;;;;;;18.70;100.00;100646.09;5051293;28;20086;-64
2023/10/14 06:37:45;;;;;;;25.60;12.55;;;;;;;18.75;100.00;100651.59;5049728;28;20067;-64
2023/10/14 06:40:13;;;;;;;20.42;11.60;;;;;;;18.79;100.00;100639.66;5050008;28;20021;-64
2023/10/14 06:42:45;;;;;;;20.15;10.93;;;;;;;18.83;100.00;100647.00;5046258;28;20033;-64
2023/10/14 06:45:14;;;;;;;25.58;12.57;;;;;;;18.89;100.00;100635.66;5050272;28;20400;-64
2023/10/14 06:47:46;;;;;;;23.80;11.90;;;;;;;18.97;100.00;100641.78;5047501;28;20347;-64
2023/10/14 06:50:12;;;;;;;28.10;13.68;;;;;;;19.07;100.00;100644.88;5049795;28;20025;-64
2023/10/14 06:52:39;;;;;;;24.85;13.30;;;;;;;19.13;100.00;100642.28;5055561;28;20043;-64
2023/10/14 06:55:07;;;;;;;25.88;12.45;;;;;;;19.19;100.00;100641.50;5055426;28;20021;-64
2023/10/14 06:57:35;;;;;;;34.53;14.13;;;;;;;19.21;100.00;100643.94;5045400;28;20526;-64
2023/10/14 07:00:07;;;;;;;28.05;13.75;;;;;;;19.25;100.00;100641.72;5054434;28;20048;-64
2023/10/14 07:02:33;;;;;;;27.73;12.80;;;;;;;19.27;100.00;100647.63;5047386;28;20037;-64
2023/10/14 07:04:59;;;;;;;28.42;14.15;;;;;;;19.27;100.00;100643.16;5047290;28;20099;-64
2023/10/14 07:07:25;;;;;;;28.35;13.43;;;;;;;19.28;100.00;100643.97;5045820;28;20028;-64
2023/10/14 07:09:50;;;;;;;28.73;14.15;;;;;;;19.30;100.00;100634.84;5058041;28;20032;-65
2023/10/14 07:12:21;;;;;;;30.50;13.18;;;;;;;19.32;100.00;100645.22;5041657;28;20362;-64
2023/10/14 07:14:47;;;;;;;23.90;12.98;;;;;;;19.33;100.00;100639.72;5047204;28;20068;-64
2023/10/14 07:17:17;;;;;;;28.45;13.23;;;;;;;19.35;100.00;100643.00;5047166;28;20484;-64
2023/10/14 07:19:43;;;;;;;22.58;12.02;;;;;;;19.38;100.00;100642.56;5053273;28;20024;-64
2023/10/14 07:22:09;;;;;;;24.95;11.35;;;;;;;19.45;100.00;100645.22;5054343;28;20392;-65
2023/10/14 07:24:37;;;;;;;18.50;10.55;;;;;;;19.51;100.00;100641.84;5044985;28;20037;-64
2023/10/14 07:27:03;;;;;;;25.45;12.52;;;;;;;19.56;100.00;100650.00;5046822;28;20052;-65
2023/10/14 07:29:29;;;;;;;22.90;12.38;;;;;;;19.55;100.00;100641.25;5051147;28;20167;-65
2023/10/14 07:31:54;;;;;;;17.75;10.70;;;;;;;19.61;100.00;100644.09;5047596;28;20037;-65
2023/10/14 07:34:20;;;;;;;24.55;12.05;;;;;;;19.65;100.00;100654.09;5048968;28;20082;-65
2023/10/14 07:36:45;;;;;;;22.42;11.48;;;;;;;19.69;100.00;100652.69;5043985;28;20039;-65
2023/10/14 07:39:27;;;;;;;28.08;11.85;;;;;;;19.78;100.00;100655.97;5053155;28;20039;-65
2023/10/14 07:41:53;;;;;;;24.77;11.88;;;;;;;19.84;100.00;100649.88;5041419;28;20120;-64
2023/10/14 07:44:19;;;;;;;19.35;10.20;;;;;;;19.83;100.00;100659.63;5049262;28;20029;-64
2023/10/14 07:46:46;;;;;;;23.63;11.52;;;;;;;19.82;100.00;100654.53;5043260;28;20041;-65
2023/10/14 07:49:11;;;;;;;25.40;10.55;;;;;;;19.84;100.00;100657.81;5048376;28;20139;-64
2023/10/14 07:51:37;;;;;;;21.10;10.82;;;;;;;19.86;100.00;100658.38;5044255;28;20474;-64
2023/10/14 07:54:02;;;;;;;19.08;10.80;;;;;;;19.94;100.00;100655.56;5043012;28;20472;-65
2023/10/14 07:56:28;;;;;;;20.30;10.30;;;;;;;19.97;100.00;100659.63;5039843;28;20492;-64
2023/10/14 07:58:55;;;;;;;17.08;9.35;;;;;;;20.00;100.00;100659.22;5035684;28;20041;-65
2023/10/14 08:01:23;;;;;;;21.20;10.35;;;;;;;20.08;100.00;100662.50;5047647;28;20396;-65
2023/10/14 08:03:49;;;;;;;20.10;10.48;;;;;;;20.08;100.00;100659.03;5049211;28;20036;-64
2023/10/14 08:06:17;;;;;;;18.77;9.35;;;;;;;20.08;100.00;100662.50;5045598;28;20423;-65
2023/10/14 08:08:47;;;;;;;18.05;9.93;;;;;;;20.12;100.00;100657.63;5047007;28;20025;-65
2023/10/14 08:11:14;;;;;;;17.25;9.30;;;;;;;20.18;100.00;100657.63;5046023;28;20027;-65
2023/10/14 08:13:43;;;;;;;17.85;10.52;;;;;;;20.20;100.00;100658.25;5040537;28;20051;-65
2023/10/14 08:16:11;;;;;;;15.93;9.07;;;;;;;20.23;100.00;100648.28;5046919;28;20040;-65
2023/10/14 08:18:37;;;;;;;21.27;9.30;;;;;;;20.24;100.00;100653.38;5046913;28;20052;-64
2023/10/14 08:21:03;;;;;;;17.15;9.45;;;;;;;20.21;100.00;100653.78;5046503;28;20068;-64
2023/10/14 08:23:29;;;;;;;15.75;9.25;;;;;;;20.21;100.00;100645.84;5048174;28;20134;-63
2023/10/14 08:25:55;;;;;;;18.27;10.13;;;;;;;20.18;100.00;100652.34;5041382;28;20044;-63
2023/10/14 08:28:24;;;;;;;21.23;9.43;;;;;;;20.19;100.00;100648.69;5050324;28;20033;-63
2023/10/14 08:30:50;;;;;;;12.82;8.25;;;;;;;20.24;100.00;100644.63;5037634;28;20033;-63
2023/10/14 08:33:18;;;;;;;13.85;7.68;;;;;;;20.29;100.00;100647.47;5045723;28;20024;-63
2023/10/14 08:35:48;;;;;;;15.88;8.65;;;;;;;20.33;100.00;100643.38;5049634;28;20024;-63
2023/10/14 08:38:17;;;;;;;13.07;7.68;;;;;;;20.39;100.00;100647.88;5045567;28;20052;-63
2023/10/14 08:40:44;;;;;;;14.95;7.47;;;;;;;20.41;100.00;100640.56;5049714;28;20033;-63
2023/10/14 08:43:16;;;;;;;16.35;7.57;;;;;;;20.45;100.00;100642.59;5050125;28;20136;-63
2023/10/14 08:45:54;;;;;;;13.82;8.02;;;;;;;20.52;100.00;100642.59;5046131;28;20569;-63
2023/10/14 08:48:24;;;;;;;9.98;6.90;;;;;;;20.63;100.00;100646.44;5047346;28;20051;-63
2023/10/14 08:50:52;;;;;;;11.68;6.75;;;;;;;20.76;100.00;100636.66;5041805;28;20476;-63
2023/10/14 08:53:22;;;;;;;15.68;7.78;;;;;;;20.83;100.00;100644.56;5040489;28;20052;-63
2023/10/14 08:55:48;;;;;;;13.45;6.45;;;;;;;20.86;100.00;100639.66;5047220;28;20025;-65
2023/10/14 08:58:14;;;;;;;12.35;6.03;;;;;;;20.78;100.00;100628.50;5047919;28;20074;-65
2023/10/14 09:00:42;;;;;;;11.73;6.20;;;;;;;20.76;100.00;100630.56;5045650;28;20518;-66
2023/10/14 09:03:11;;;;;;;9.73;5.90;;;;;;;20.78;100.00;100625.88;5035392;28;20047;-66
2023/10/14 09:05:41;;;;;;;9.18;5.35;;;;;;;20.90;100.00;100624.19;5043758;28;20052;-66
2023/10/14 09:08:11;;;;;;;11.38;4.93;;;;;;;21.16;100.00;100623.28;5039217;28;20090;-66
2023/10/14 09:10:37;;;;;;;10.82;5.85;;;;;;;21.32;100.00;100628.13;5036013;28;20491;-66
2023/10/14 09:13:08;;;;;;;8.45;4.78;;;;;;;21.38;100.00;100629.94;5043179;28;20031;-66
2023/10/14 09:15:43;;;;;;;8.68;4.15;;;;;;;21.38;100.00;100629.94;5034764;28;20558;-66
2023/10/14 09:18:13;;;;;;;;;;;;;;;21.34;98.95;100625.28;5044069;28;20090;-70
2023/10/14 09:20:39;;;;;;;10.27;4.72;;;;;;;21.34;100.00;100626.09;5044521;28;19952;-66
2023/10/14 09:23:19;;;;;;;9.88;4.90;;;;;;;21.36;100.00;100623.22;5048362;28;20396;-66
2023/10/14 09:25:50;;;;;;;7.93;4.72;;;;;;;21.28;100.00;100618.97;5042160;28;20353;-66
2023/10/14 09:28:19;;;;;;;7.47;4.00;;;;;;;21.24;100.00;100624.94;5048997;28;20111;-66
2023/10/14 09:30:45;;;;;;;6.70;4.05;;;;;;;21.19;100.00;100623.69;5040930;28;20477;-67
2023/10/14 09:33:15;;;;;;;7.80;4.38;;;;;;;21.14;100.00;100615.56;5048145;28;20032;-66
2023/10/14 09:35:50;;;;;;;8.63;4.65;;;;;;;21.10;100.00;100624.94;5050888;28;20565;-66
2023/10/14 09:38:22;;;;;;;9.73;4.50;;;;;;;21.03;100.00;100616.19;5050985;28;20033;-67
2023/10/14 09:41:05;;;;;;;9.57;5.38;;;;;;;21.04;100.00;100609.88;5052048;28;20291;-67
2023/10/14 09:43:33;;;;;;;11.48;5.50;;;;;;;21.14;100.00;100609.44;5045615;28;20536;-66
2023/10/14 09:46:00;;;;;;;7.15;5.03;;;;;;;21.22;100.00;100611.91;5052370;28;20508;-66
2023/10/14 09:48:29;;;;;;;13.43;5.47;;;;;;;21.21;100.00;100607.63;5046322;28;20128;-66
2023/10/14 09:50:55;;;;;;;12.52;4.90;;;;;;;21.12;100.00;100607.00;5052368;28;20511;-66
2023/10/14 09:53:26;;;;;;;9.18;5.55;;;;;;;21.04;100.00;100609.06;5052364;28;20358;-66
2023/10/14 09:55:56;;;;;;;8.32;5.07;;;;;;;21.04;100.00;100609.06;5045655;28;20024;-66
2023/10/14 09:58:30;;;;;;;11.32;4.65;;;;;;;21.07;100.00;100604.16;5044337;28;20033;-66
2023/10/14 10:00:59;;;;;;;6.50;4.43;;;;;;;21.06;100.00;100604.38;5046486;28;20029;-66
2023/10/14 10:03:25;;;;;;;10.88;5.07;;;;;;;21.03;100.00;100596.84;5050294;28;20275;-66
2023/10/14 10:06:21;;;;;;;9.05;4.65;;;;;;;20.97;100.00;100602.97;5042877;28;20029;-66
2023/10/14 10:09:20;;;;;;;8.95;4.60;;;;;;;20.88;100.00;100595.25;5047280;28;20427;-66
2023/10/14 10:11:48;;;;;;;7.85;4.32;;;;;;;20.84;100.00;100595.88;5049795;28;20052;-66
2023/10/14 10:14:19;;;;;;;7.60;4.50;;;;;;;20.80;100.00;100595.47;5048165;28;20020;-66
2023/10/14 10:16:47;;;;;;;8.05;4.95;;;;;;;20.84;100.00;100588.75;5043494;28;20041;-66
2023/10/14 10:19:13;;;;;;;14.07;5.68;;;;;;;20.93;100.00;100585.88;5048399;28;20175;-66
2023/10/14 10:21:43;;;;;;;10.07;5.53;;;;;;;20.97;100.00;100584.44;5051324;28;20040;-66
2023/10/14 10:24:23;;;;;;;8.52;5.00;;;;;;;20.99;100.00;100585.84;5051517;28;20032;-66
2023/10/14 10:27:04;;;;;;;5.95;3.90;;;;;;;21.00;100.00;100584.84;5046439;28;20381;-66
2023/10/14 10:29:33;;;;;;;8.73;5.18;;;;;;;21.05;100.00;100581.56;5045460;28;20091;-66
2023/10/14 10:32:11;;;;;;;12.10;5.40;;;;;;;21.06;100.00;100569.94;5047663;28;20463;-66
2023/10/14 10:35:13;;;;;;;8.32;4.07;;;;;;;20.99;98.75;100564.66;5048746;28;20484;-66
2023/10/14 10:37:47;;;;;;;7.75;4.30;;;;;;;20.97;100.00;100572.00;5049134;28;20041;-66
2023/10/14 10:40:15;;;;;;;6.18;4.38;;;;;;;20.94;100.00;100566.31;5047128;28;20140;-66
2023/10/14 10:42:46;;;;;;;7.57;4.30;;;;;;;20.88;100.00;100563.47;5043658;28;20561;-66
2023/10/14 10:45:20;;;;;;;8.13;4.65;;;;;;;20.85;100.00;100560.44;5047401;28;20033;-66
2023/10/14 10:47:58;;;;;;;8.30;4.60;;;;;;;20.82;100.00;100550.25;5044435;28;20110;-66
2023/10/14 10:50:36;;;;;;;5.95;3.25;;;;;;;20.78;100.00;100547.25;5048446;28;20111;-66
2023/10/14 10:53:07;;;;;;;7.95;4.05;;;;;;;20.74;100.00;100546.03;5041094;28;20481;-66
2023/10/14 10:55:38;;;;;;;9.32;4.47;;;;;;;20.69;100.00;100531.81;5046872;28;20045;-66
2023/10/14 10:58:04;;;;;;;9.40;4.47;;;;;;;20.63;100.00;100528.16;5047850;28;20025;-66
2023/10/14 11:00:31;;;;;;;8.02;4.93;;;;;;;20.62;100.00;100531.81;5046833;28;20037;-66
2023/10/14 11:02:57;;;;;;;10.10;4.40;;;;;;;20.64;100.00;100528.97;5049297;28;20024;-66
2023/10/14 11:05:25;;;;;;;8.75;4.88;;;;;;;20.63;100.00;100522.84;5050497;28;20048;-66
2023/10/14 11:07:52;;;;;;;8.55;5.18;;;;;;;20.66;100.00;100524.28;5049182;28;20033;-66
2023/10/14 11:10:29;;;;;;;7.25;4.63;;;;;;;20.73;100.00;100520.59;5048962;28;20462;-66
2023/10/14 11:12:56;;;;;;;10.25;5.18;;;;;;;20.88;100.00;100507.88;5046142;28;20029;-66
2023/10/14 11:15:23;;;;;;;10.77;4.75;;;;;;;21.12;100.00;100506.34;5049823;28;20519;-66
2023/10/14 11:17:58;;;;;;;7.32;3.08;;;;;;;21.41;96.84;100491.69;5049130;28;20028;-69
2023/10/14 11:20:43;;;;;;;;;;;;;;;21.62;91.02;100500.34;5046185;28;20025;-67
2023/10/14 11:23:11;;;;;;;9.57;3.88;;;;;;;21.92;91.23;100482.72;5044517;28;19924;-67
2023/10/14 11:25:45;;;;;;;8.23;3.72;;;;;;;22.12;87.17;100494.00;5039723;28;20025;-66
2023/10/14 11:28:14;;;;;;;3.85;2.17;;;;;;;22.30;88.61;100487.06;5048014;28;20055;-64
2023/10/14 11:30:47;;;;;;;6.68;2.45;;;;;;;22.40;87.43;100482.06;5047262;28;20037;-65
2023/10/14 11:33:19;;;;;;;5.30;2.78;;;;;;;22.49;87.42;100483.38;5043765;28;20037;-65
2023/10/14 11:35:49;;;;;;;7.45;2.30;;;;;;;22.69;85.79;100475.97;5044394;28;20480;-64
2023/10/14 11:38:14;;;;;;;7.63;2.70;;;;;;;22.92;84.61;100485.13;5054931;28;20036;-64
2023/10/14 11:40:48;;;;;;;4.50;2.25;;;;;;;23.01;83.91;100479.28;5040083;28;20036;-64
2023/10/14 11:43:16;;;;;;;7.05;2.72;;;;;;;23.05;82.30;100484.94;5051837;28;20050;-65
2023/10/14 11:45:44;;;;;;;2.83;1.88;;;;;;;22.97;82.85;100477.28;5048293;28;20112;-65
2023/10/14 11:48:27;;;;;;;7.40;2.45;;;;;;;22.89;80.12;100480.25;5040424;28;20061;-64
2023/10/14 11:51:00;;;;;;;4.22;1.90;;;;;;;22.83;82.28;100482.78;5050702;28;20032;-64
2023/10/14 11:53:28;;;;;;;5.63;2.22;;;;;;;22.78;83.48;100479.13;5042230;28;20036;-64
2023/10/14 11:56:04;;;;;;;3.45;2.03;;;;;;;22.72;84.16;100469.41;5039082;28;20017;-68